createdAt,value
2018-09-18T00:00:33.012Z,100.00
2018-09-18T00:02:08.558Z,100.00
2018-09-18T00:03:44.050Z,100.00
2018-09-18T00:05:19.562Z,100.00
2018-09-18T00:06:54.999Z,100.00
2018-09-18T00:08:30.463Z,100.00
2018-09-18T00:10:06.616Z,100.00
2018-09-18T00:11:42.129Z,100.00
2018-09-18T00:13:17.635Z,100.00
2018-09-18T00:14:53.165Z,100.00
2018-09-18T00:16:28.660Z,100.00
2018-09-18T00:18:04.116Z,100.00
2018-09-18T00:19:39.605Z,100.00
2018-09-18T00:21:15.157Z,100.00
2018-09-18T00:22:50.635Z,100.00
2018-09-18T00:24:26.162Z,100.00
2018-09-18T00:26:01.660Z,100.00
2018-09-18T00:27:37.151Z,100.00
2018-09-18T00:29:12.615Z,100.00
2018-09-18T00:30:48.102Z,100.00
2018-09-18T00:32:23.674Z,100.00
2018-09-18T00:33:59.148Z,100.00
2018-09-18T00:35:34.587Z,100.00
2018-09-18T00:37:10.010Z,100.00
2018-09-18T00:38:45.485Z,100.00
2018-09-18T00:40:26.242Z,100.00
2018-09-18T00:42:02.807Z,100.00
2018-09-18T00:43:38.291Z,100.00
2018-09-18T00:45:13.752Z,100.00
2018-09-18T00:46:49.242Z,100.00
2018-09-18T00:48:24.750Z,100.00
2018-09-18T00:50:00.298Z,100.00
2018-09-18T00:51:35.746Z,100.00
2018-09-18T00:53:11.271Z,100.00
2018-09-18T00:54:46.838Z,100.00
2018-09-18T00:56:22.380Z,100.00
2018-09-18T00:57:57.877Z,100.00
2018-09-18T00:59:33.551Z,100.00
2018-09-18T01:01:09.103Z,100.00
2018-09-18T01:02:44.628Z,100.00
2018-09-18T01:04:20.230Z,100.00
2018-09-18T01:05:55.820Z,100.00
2018-09-18T01:07:31.298Z,100.00
2018-09-18T01:09:08.225Z,100.00
2018-09-18T01:10:43.868Z,100.00
2018-09-18T01:12:19.400Z,100.00
2018-09-18T01:13:55.088Z,100.00
2018-09-18T01:15:30.599Z,100.00
2018-09-18T01:17:06.144Z,100.00
2018-09-18T01:18:42.654Z,100.00
2018-09-18T01:20:18.167Z,100.00
2018-09-18T01:21:53.664Z,100.00
2018-09-18T01:23:29.160Z,100.00
2018-09-18T01:25:04.677Z,100.00
2018-09-18T01:26:40.175Z,100.00
2018-09-18T01:28:15.821Z,100.00
2018-09-18T01:29:51.335Z,100.00
2018-09-18T01:31:26.846Z,100.00
2018-09-18T01:33:02.502Z,100.00
2018-09-18T01:34:38.008Z,100.00
2018-09-18T01:36:13.460Z,100.00
2018-09-18T01:37:48.928Z,100.00
2018-09-18T01:39:24.522Z,100.00
2018-09-18T01:41:00.029Z,100.00
2018-09-18T01:42:35.772Z,100.00
2018-09-18T01:44:11.311Z,100.00
2018-09-18T01:45:46.842Z,100.00
2018-09-18T01:47:22.413Z,100.00
2018-09-18T01:48:57.879Z,100.00
2018-09-18T01:50:33.440Z,100.00
2018-09-18T01:52:08.912Z,100.00
2018-09-18T01:53:44.422Z,100.00
2018-09-18T01:55:19.860Z,100.00
2018-09-18T01:56:55.400Z,100.00
2018-09-18T01:58:30.938Z,100.00
2018-09-18T02:00:06.449Z,100.00
2018-09-18T02:01:41.903Z,100.00
2018-09-18T02:03:17.446Z,100.00
2018-09-18T02:04:52.951Z,100.00
2018-09-18T02:06:28.414Z,100.00
2018-09-18T02:08:03.900Z,100.00
2018-09-18T02:09:39.397Z,100.00
2018-09-18T02:11:14.900Z,100.00
2018-09-18T02:12:50.371Z,100.00
2018-09-18T02:14:25.966Z,100.00
2018-09-18T02:16:01.756Z,100.00
2018-09-18T02:17:37.293Z,100.00
2018-09-18T02:19:12.842Z,100.00
2018-09-18T02:20:48.332Z,100.00
2018-09-18T02:22:23.919Z,100.00
2018-09-18T02:23:59.636Z,100.00
2018-09-18T02:25:35.140Z,100.00
2018-09-18T02:27:10.638Z,100.00
2018-09-18T02:28:47.028Z,100.00
2018-09-18T02:30:22.505Z,100.00
2018-09-18T02:31:57.987Z,100.00
2018-09-18T02:33:33.473Z,100.00
2018-09-18T02:35:08.996Z,100.00
2018-09-18T02:36:44.485Z,100.00
2018-09-18T02:38:20.039Z,100.00
2018-09-18T02:39:55.527Z,100.00
2018-09-18T02:41:31.065Z,100.00
2018-09-18T02:43:06.543Z,100.00
2018-09-18T02:44:42.036Z,100.00
2018-09-18T02:46:17.661Z,100.00
2018-09-18T02:47:53.487Z,100.00
2018-09-18T02:49:29.110Z,100.00
2018-09-18T02:51:04.588Z,100.00
2018-09-18T02:52:40.498Z,100.00
2018-09-18T02:54:16.048Z,100.00
2018-09-18T02:55:51.571Z,100.00
2018-09-18T02:57:27.074Z,100.00
2018-09-18T02:59:02.554Z,100.00
2018-09-18T03:00:38.329Z,100.00
2018-09-18T03:02:13.844Z,100.00
2018-09-18T03:03:49.372Z,100.00
2018-09-18T03:05:24.867Z,100.00
2018-09-18T03:07:00.329Z,100.00
2018-09-18T03:08:35.832Z,100.00
2018-09-18T03:10:11.313Z,100.00
2018-09-18T03:11:46.823Z,100.00
2018-09-18T03:13:22.281Z,100.00
2018-09-18T03:14:57.812Z,100.00
2018-09-18T03:16:33.284Z,100.00
2018-09-18T03:18:08.789Z,100.00
2018-09-18T03:19:44.269Z,100.00
2018-09-18T03:21:20.065Z,100.00
2018-09-18T03:22:55.546Z,100.00
2018-09-18T03:24:31.003Z,100.00
2018-09-18T03:26:06.505Z,100.00
2018-09-18T03:27:42.236Z,100.00
2018-09-18T03:29:17.722Z,100.00
2018-09-18T03:30:53.193Z,100.00
2018-09-18T03:32:28.658Z,100.00
2018-09-18T03:34:04.188Z,100.00
2018-09-18T03:35:39.692Z,100.00
2018-09-18T03:37:15.105Z,100.00
2018-09-18T03:38:50.605Z,100.00
2018-09-18T03:40:26.104Z,100.00
2018-09-18T03:42:01.598Z,100.00
2018-09-18T03:43:37.261Z,100.00
2018-09-18T03:45:12.740Z,100.00
2018-09-18T03:46:48.210Z,100.00
2018-09-18T03:48:23.802Z,100.00
2018-09-18T03:49:59.273Z,100.00
2018-09-18T03:51:34.762Z,100.00
2018-09-18T03:53:10.341Z,100.00
2018-09-18T03:54:46.061Z,100.00
2018-09-18T03:56:21.663Z,100.00
2018-09-18T03:57:57.159Z,100.00
2018-09-18T03:59:32.673Z,100.00
2018-09-18T04:01:08.678Z,100.00
2018-09-18T04:02:44.187Z,100.00
2018-09-18T04:04:19.751Z,100.00
2018-09-18T04:05:55.281Z,100.00
2018-09-18T04:07:30.800Z,100.00
2018-09-18T04:09:08.615Z,100.00
2018-09-18T04:10:44.138Z,100.00
2018-09-18T04:12:20.055Z,100.00
2018-09-18T04:13:55.565Z,100.00
2018-09-18T04:15:31.077Z,100.00
2018-09-18T04:17:06.570Z,100.00
2018-09-18T04:18:42.084Z,100.00
2018-09-18T04:20:17.614Z,100.00
2018-09-18T04:21:53.417Z,100.00
2018-09-18T04:23:28.885Z,100.00
2018-09-18T04:25:04.380Z,100.00
2018-09-18T04:26:41.186Z,100.00
2018-09-18T04:28:16.756Z,100.00
2018-09-18T04:29:52.272Z,100.00
2018-09-18T04:31:27.743Z,100.00
2018-09-18T04:33:03.305Z,100.00
2018-09-18T04:34:39.214Z,100.00
2018-09-18T04:36:14.777Z,100.00
2018-09-18T04:37:50.468Z,100.00
2018-09-18T04:39:26.060Z,100.00
2018-09-18T04:41:01.547Z,100.00
2018-09-18T04:42:37.099Z,100.00
2018-09-18T04:44:12.597Z,100.00
2018-09-18T04:45:48.179Z,100.00
2018-09-18T04:47:24.014Z,100.00
2018-09-18T04:49:00.096Z,100.00
2018-09-18T04:50:35.609Z,100.00
2018-09-18T04:52:11.098Z,100.00
2018-09-18T04:53:53.327Z,100.00
2018-09-18T04:55:28.901Z,100.00
2018-09-18T04:57:04.403Z,100.00
2018-09-18T04:58:39.884Z,100.00
2018-09-18T05:00:15.404Z,100.00
2018-09-18T05:01:50.915Z,100.00
2018-09-18T05:03:26.933Z,100.00
2018-09-18T05:05:02.876Z,100.00
2018-09-18T05:06:38.782Z,100.00
2018-09-18T05:08:14.354Z,100.00
2018-09-18T05:09:49.989Z,100.00
2018-09-18T05:11:26.019Z,100.00
2018-09-18T05:13:05.218Z,100.00
2018-09-18T05:14:42.730Z,100.00
2018-09-18T05:16:18.274Z,100.00
2018-09-18T05:17:53.749Z,100.00
2018-09-18T05:19:29.295Z,100.00
2018-09-18T05:21:04.890Z,100.00
2018-09-18T05:22:40.345Z,100.00
2018-09-18T05:24:15.825Z,100.00
2018-09-18T05:25:57.739Z,100.00
2018-09-18T05:27:33.236Z,100.00
2018-09-18T05:29:08.771Z,100.00
2018-09-18T05:30:44.268Z,100.00
2018-09-18T05:32:19.811Z,100.00
2018-09-18T05:34:10.140Z,100.00
2018-09-18T05:35:45.652Z,100.00
2018-09-18T05:37:21.172Z,100.00
2018-09-18T05:38:56.960Z,100.00
2018-09-18T05:40:32.384Z,100.00
2018-09-18T05:42:07.869Z,100.00
2018-09-18T05:43:44.224Z,100.00
2018-09-18T05:45:19.771Z,100.00
2018-09-18T05:46:55.275Z,100.00
2018-09-18T05:48:34.402Z,100.00
2018-09-18T05:50:09.866Z,100.00
2018-09-18T05:51:45.358Z,100.00
2018-09-18T05:53:20.807Z,100.00
2018-09-18T05:54:56.322Z,100.00
2018-09-18T05:56:31.790Z,100.00
2018-09-18T05:58:07.346Z,100.00
2018-09-18T05:59:42.850Z,100.00
2018-09-18T06:01:18.322Z,100.00
2018-09-18T06:02:54.100Z,100.00
2018-09-18T06:04:29.609Z,100.00
2018-09-18T06:06:05.128Z,100.00
2018-09-18T06:07:40.965Z,100.00
2018-09-18T06:09:16.438Z,100.00
2018-09-18T06:10:51.893Z,100.00
2018-09-18T06:12:27.406Z,100.00
2018-09-18T06:14:02.893Z,100.00
2018-09-18T06:15:38.306Z,100.00
2018-09-18T06:17:13.795Z,100.00
2018-09-18T06:18:49.375Z,100.00
2018-09-18T06:20:24.826Z,100.00
2018-09-18T06:22:00.312Z,100.00
2018-09-18T06:23:36.435Z,100.00
2018-09-18T06:25:12.008Z,100.00
2018-09-18T06:26:47.506Z,100.00
2018-09-18T06:28:22.979Z,100.00
2018-09-18T06:29:58.492Z,100.00
2018-09-18T06:31:34.034Z,100.00
2018-09-18T06:33:09.578Z,100.00
2018-09-18T06:34:45.200Z,100.00
2018-09-18T06:36:21.681Z,100.00
2018-09-18T06:37:57.294Z,100.00
2018-09-18T06:39:32.779Z,100.00
2018-09-18T06:41:08.684Z,100.00
2018-09-18T06:42:44.140Z,100.00
2018-09-18T06:44:19.665Z,100.00
2018-09-18T06:45:55.218Z,100.00
2018-09-18T06:47:30.986Z,100.00
2018-09-18T06:49:06.521Z,100.00
2018-09-18T06:50:42.351Z,100.00
2018-09-18T06:52:17.964Z,100.00
2018-09-18T06:53:53.447Z,100.00
2018-09-18T06:55:28.965Z,100.00
2018-09-18T06:57:04.427Z,100.00
2018-09-18T06:58:39.957Z,100.00
2018-09-18T07:00:15.459Z,100.00
2018-09-18T07:01:51.041Z,100.00
2018-09-18T07:03:26.589Z,100.00
2018-09-18T07:05:03.024Z,100.00
2018-09-18T07:06:45.116Z,100.00
2018-09-18T07:08:20.684Z,100.00
2018-09-18T07:09:56.166Z,100.00
2018-09-18T07:11:31.758Z,100.00
2018-09-18T07:13:07.251Z,100.00
2018-09-18T07:14:43.354Z,100.00
2018-09-18T07:16:18.930Z,100.00
2018-09-18T07:17:54.458Z,100.00
2018-09-18T07:19:30.051Z,100.00
2018-09-18T07:21:05.802Z,100.00
2018-09-18T07:22:41.388Z,100.00
2018-09-18T07:24:16.866Z,100.00
2018-09-18T07:25:52.342Z,100.00
2018-09-18T07:27:27.877Z,100.00
2018-09-18T07:29:03.396Z,100.00
2018-09-18T07:30:38.941Z,100.00
2018-09-18T07:32:14.485Z,100.00
2018-09-18T07:33:50.390Z,100.00
2018-09-18T07:35:25.849Z,100.00
2018-09-18T07:37:01.337Z,100.00
2018-09-18T07:38:36.899Z,100.00
2018-09-18T07:40:13.308Z,100.00
2018-09-18T07:41:48.866Z,100.00
2018-09-18T07:43:24.406Z,100.00
2018-09-18T07:44:59.903Z,100.00
2018-09-18T07:46:35.416Z,100.00
2018-09-18T07:48:11.028Z,100.00
2018-09-18T07:49:46.649Z,100.00
2018-09-18T07:51:22.139Z,100.00
2018-09-18T07:52:57.871Z,100.00
2018-09-18T07:54:33.347Z,100.00
2018-09-18T07:56:08.861Z,100.00
2018-09-18T07:57:44.369Z,100.00
2018-09-18T07:59:19.862Z,100.00
2018-09-18T08:00:55.360Z,100.00
2018-09-18T08:02:30.958Z,100.00
2018-09-18T08:04:06.414Z,100.00
2018-09-18T08:05:41.899Z,100.00
2018-09-18T08:07:17.460Z,100.00
2018-09-18T08:08:54.097Z,100.00
2018-09-18T08:10:29.593Z,100.00
2018-09-18T08:12:05.094Z,100.00
2018-09-18T08:13:40.651Z,100.00
2018-09-18T08:15:16.164Z,100.00
2018-09-18T08:16:51.663Z,100.00
2018-09-18T08:18:27.146Z,100.00
2018-09-18T08:20:02.674Z,100.00
2018-09-18T08:21:38.237Z,100.00
2018-09-18T08:23:13.706Z,100.00
2018-09-18T08:24:49.736Z,100.00
2018-09-18T08:26:25.196Z,100.00
2018-09-18T08:28:00.776Z,100.00
2018-09-18T08:29:37.053Z,100.00
2018-09-18T08:31:12.572Z,100.00
2018-09-18T08:32:48.153Z,100.00
2018-09-18T08:34:23.896Z,100.00
2018-09-18T08:36:13.956Z,100.00
2018-09-18T08:37:49.464Z,100.00
2018-09-18T08:39:24.984Z,100.00
2018-09-18T08:41:00.525Z,100.00
2018-09-18T08:42:35.968Z,100.00
2018-09-18T08:44:11.461Z,100.00
2018-09-18T08:47:37.212Z,100.00
2018-09-18T08:49:12.692Z,100.00
2018-09-18T08:50:48.170Z,100.00
2018-09-18T08:52:23.616Z,100.00
2018-09-18T08:53:59.132Z,100.00
2018-09-18T08:55:34.659Z,100.00
2018-09-18T08:57:10.125Z,100.00
2018-09-18T08:58:45.683Z,100.00
2018-09-18T09:00:21.151Z,100.00
2018-09-18T09:01:56.689Z,100.00
2018-09-18T09:03:32.177Z,100.00
2018-09-18T09:05:07.674Z,100.00
2018-09-18T09:06:43.203Z,100.00
2018-09-18T09:08:18.794Z,100.00
2018-09-18T09:09:54.189Z,100.00
2018-09-18T09:11:29.694Z,100.00
2018-09-18T09:13:05.224Z,100.00
2018-09-18T09:14:47.533Z,100.00
2018-09-18T09:16:22.985Z,100.00
2018-09-18T09:17:58.556Z,100.00
2018-09-18T09:19:34.024Z,100.00
2018-09-18T09:21:09.671Z,100.00
2018-09-18T09:22:45.163Z,100.00
2018-09-18T09:24:20.526Z,100.00
2018-09-18T09:25:56.084Z,100.00
2018-09-18T09:27:31.719Z,100.00
2018-09-18T09:29:07.106Z,100.00
2018-09-18T09:30:42.642Z,100.00
2018-09-18T09:32:18.239Z,100.00
2018-09-18T09:33:53.680Z,100.00
2018-09-18T09:35:29.173Z,100.00
2018-09-18T09:37:04.698Z,100.00
2018-09-18T09:38:40.423Z,100.00
2018-09-18T09:40:15.885Z,100.00
2018-09-18T09:41:51.602Z,100.00
2018-09-18T09:43:27.120Z,100.00
2018-09-18T09:45:02.791Z,100.00
2018-09-18T09:46:38.232Z,100.00
2018-09-18T09:48:13.705Z,100.00
2018-09-18T09:49:49.222Z,100.00
2018-09-18T09:51:24.881Z,100.00
2018-09-18T09:53:00.342Z,100.00
2018-09-18T09:54:35.850Z,100.00
2018-09-18T09:56:11.328Z,100.00
2018-09-18T09:57:47.094Z,100.00
2018-09-18T09:59:22.933Z,100.00
2018-09-18T10:01:03.857Z,100.00
2018-09-18T10:02:45.038Z,100.00
2018-09-18T10:04:20.617Z,100.00
2018-09-18T10:05:56.220Z,100.00
2018-09-18T10:07:31.778Z,100.00
2018-09-18T10:09:09.365Z,100.00
2018-09-18T10:10:45.029Z,100.00
2018-09-18T10:12:20.451Z,100.00
2018-09-18T10:13:55.988Z,100.00
2018-09-18T10:15:31.592Z,100.00
2018-09-18T10:17:08.193Z,100.00
2018-09-18T10:18:43.737Z,100.00
2018-09-18T10:20:19.254Z,100.00
2018-09-18T10:21:54.755Z,100.00
2018-09-18T10:23:30.250Z,100.00
2018-09-18T10:25:06.104Z,100.00
2018-09-18T10:26:41.645Z,100.00
2018-09-18T10:28:17.158Z,100.00
2018-09-18T10:29:52.736Z,100.00
2018-09-18T10:31:28.261Z,100.00
2018-09-18T10:33:04.038Z,100.00
2018-09-18T10:34:39.545Z,100.00
2018-09-18T10:36:15.055Z,100.00
2018-09-18T10:37:50.592Z,100.00
2018-09-18T10:39:26.091Z,100.00
2018-09-18T10:41:01.702Z,100.00
2018-09-18T10:42:37.066Z,100.00
2018-09-18T10:44:12.519Z,99.11
2018-09-18T10:45:48.000Z,91.52
2018-09-18T10:47:23.548Z,91.41
2018-09-18T10:48:59.036Z,85.23
2018-09-18T10:50:34.611Z,89.01
2018-09-18T10:52:10.159Z,87.14
2018-09-18T10:53:45.620Z,92.48
2018-09-18T10:55:21.182Z,92.25
2018-09-18T10:56:56.688Z,94.00
2018-09-18T10:58:32.198Z,92.27
2018-09-18T11:00:08.189Z,93.12
2018-09-18T11:01:43.713Z,93.14
2018-09-18T11:03:19.354Z,95.96
2018-09-18T11:04:54.788Z,94.51
2018-09-18T11:06:30.396Z,100.00
2018-09-18T11:08:05.950Z,96.46
2018-09-18T11:09:41.575Z,97.06
2018-09-18T11:11:17.006Z,94.18
2018-09-18T11:12:52.458Z,97.94
2018-09-18T11:14:28.173Z,97.54
2018-09-18T11:16:03.705Z,100.00
2018-09-18T11:17:40.197Z,100.00
2018-09-18T11:19:15.766Z,100.00
2018-09-18T11:20:51.292Z,100.00
2018-09-18T11:22:26.971Z,97.90
2018-09-18T11:24:02.354Z,99.22
2018-09-18T11:25:37.933Z,95.12
2018-09-18T11:27:13.419Z,94.67
2018-09-18T11:28:48.993Z,93.43
2018-09-18T11:30:24.478Z,91.05
2018-09-18T11:32:00.005Z,89.73
2018-09-18T11:33:36.388Z,83.38
2018-09-18T11:35:11.930Z,78.70
2018-09-18T11:36:47.464Z,78.43
2018-09-18T11:38:22.989Z,80.38
2018-09-18T11:39:58.493Z,80.74
2018-09-18T11:41:34.037Z,83.89
2018-09-18T11:43:15.929Z,84.29
2018-09-18T11:44:51.429Z,82.26
2018-09-18T11:46:26.941Z,85.11
2018-09-18T11:48:03.229Z,90.35
2018-09-18T11:49:38.733Z,83.22
2018-09-18T11:51:15.431Z,89.78
2018-09-18T11:52:50.901Z,78.98
2018-09-18T11:54:26.418Z,74.90
2018-09-18T11:56:01.881Z,76.24
2018-09-18T11:57:37.368Z,69.21
2018-09-18T11:59:12.912Z,71.05
2018-09-18T12:00:48.561Z,71.93
2018-09-18T12:02:24.057Z,69.28
2018-09-18T12:03:59.540Z,75.59
2018-09-18T12:05:35.139Z,73.58
2018-09-18T12:07:10.616Z,69.63
2018-09-18T12:08:46.181Z,68.42
2018-09-18T12:10:21.687Z,65.92
2018-09-18T12:11:57.246Z,68.87
2018-09-18T12:13:32.755Z,66.43
2018-09-18T12:15:08.225Z,68.43
2018-09-18T12:16:43.794Z,73.46
2018-09-18T12:18:19.264Z,69.01
2018-09-18T12:19:54.758Z,67.88
2018-09-18T12:21:30.385Z,66.36
2018-09-18T12:23:06.093Z,70.50
2018-09-18T12:24:41.654Z,66.39
2018-09-18T12:26:17.149Z,66.85
2018-09-18T12:27:52.787Z,69.50
2018-09-18T12:29:28.261Z,73.35
2018-09-18T12:31:03.805Z,70.02
2018-09-18T12:32:39.357Z,68.91
2018-09-18T12:34:14.893Z,73.17
2018-09-18T12:35:50.471Z,74.12
2018-09-18T12:37:25.891Z,71.81
2018-09-18T12:39:01.380Z,75.50
2018-09-18T12:40:37.053Z,74.45
2018-09-18T12:42:12.733Z,79.72
2018-09-18T12:43:48.090Z,70.20
2018-09-18T12:45:23.564Z,72.59
2018-09-18T12:46:59.069Z,77.69
2018-09-18T12:48:34.734Z,73.50
2018-09-18T12:50:10.368Z,75.06
2018-09-18T12:51:45.723Z,74.32
2018-09-18T12:53:21.268Z,70.17
2018-09-18T12:54:56.802Z,74.49
2018-09-18T12:56:32.376Z,76.01
2018-09-18T12:58:07.971Z,75.47
2018-09-18T12:59:43.474Z,76.71
2018-09-18T13:01:18.920Z,76.88
2018-09-18T13:02:54.455Z,70.12
2018-09-18T13:04:29.941Z,77.86
2018-09-18T13:06:05.513Z,73.96
2018-09-18T13:07:40.903Z,73.51
2018-09-18T13:09:16.465Z,81.08
2018-09-18T13:10:51.999Z,80.87
2018-09-18T13:12:27.540Z,80.59
2018-09-18T13:14:03.127Z,80.56
2018-09-18T13:15:38.636Z,78.74
2018-09-18T13:17:14.243Z,82.58
2018-09-18T13:18:49.720Z,73.09
2018-09-18T13:20:25.333Z,73.56
2018-09-18T13:22:00.901Z,75.91
2018-09-18T13:23:36.413Z,71.56
2018-09-18T13:25:11.898Z,71.33
2018-09-18T13:26:47.489Z,77.40
2018-09-18T13:28:24.050Z,79.07
2018-09-18T13:29:59.557Z,79.74
2018-09-18T13:31:35.027Z,73.04
2018-09-18T13:33:10.561Z,70.70
2018-09-18T13:34:46.059Z,74.49
2018-09-18T13:36:21.670Z,75.89
2018-09-18T13:37:57.199Z,77.62
2018-09-18T13:39:32.748Z,81.66
2018-09-18T13:41:08.315Z,75.34
2018-09-18T13:42:43.845Z,74.92
2018-09-18T13:44:19.369Z,73.25
2018-09-18T13:45:54.885Z,78.62
2018-09-18T13:47:30.403Z,81.21
2018-09-18T13:49:06.033Z,84.02
2018-09-18T13:50:41.442Z,74.22
2018-09-18T13:52:16.935Z,78.67
2018-09-18T13:53:52.444Z,80.56
2018-09-18T13:55:27.936Z,73.72
2018-09-18T13:57:03.415Z,74.09
2018-09-18T13:58:38.884Z,78.65
2018-09-18T14:00:14.457Z,84.35
2018-09-18T14:01:50.133Z,86.86
2018-09-18T14:03:25.574Z,76.55
2018-09-18T14:05:01.361Z,77.18
2018-09-18T14:06:37.857Z,76.96
2018-09-18T14:08:13.427Z,77.86
2018-09-18T14:09:49.426Z,71.99
2018-09-18T14:11:24.957Z,74.13
2018-09-18T14:13:00.518Z,75.62
2018-09-18T14:14:36.047Z,78.90
2018-09-18T14:16:11.613Z,80.73
2018-09-18T14:17:47.140Z,79.10
2018-09-18T14:19:22.679Z,76.71
2018-09-18T14:20:58.227Z,83.48
2018-09-18T14:22:34.182Z,80.43
2018-09-18T14:24:09.680Z,79.02
2018-09-18T14:25:45.223Z,84.83
2018-09-18T14:27:20.804Z,82.38
2018-09-18T14:28:56.414Z,76.33
2018-09-18T14:30:31.938Z,79.50
2018-09-18T14:32:07.540Z,77.62
2018-09-18T14:33:43.045Z,72.08
2018-09-18T14:35:18.550Z,72.28
2018-09-18T14:36:54.113Z,71.25
2018-09-18T14:38:29.655Z,77.00
2018-09-18T14:40:05.222Z,72.19
2018-09-18T14:41:40.713Z,75.34
2018-09-18T14:43:16.242Z,79.07
2018-09-18T14:44:51.779Z,72.94
2018-09-18T14:46:27.277Z,75.74
2018-09-18T14:48:02.915Z,79.51
2018-09-18T14:49:38.373Z,79.19
2018-09-18T14:51:14.008Z,78.60
2018-09-18T14:52:49.488Z,76.29
2018-09-18T14:54:25.053Z,75.96
2018-09-18T14:56:00.518Z,77.43
2018-09-18T14:57:36.094Z,77.69
2018-09-18T14:59:11.607Z,78.88
2018-09-18T15:00:47.110Z,76.59
2018-09-18T15:02:22.597Z,76.97
2018-09-18T15:03:58.131Z,73.56
2018-09-18T15:05:33.613Z,79.44
2018-09-18T15:07:14.695Z,81.18
2018-09-18T15:08:50.232Z,77.79
2018-09-18T15:10:25.744Z,79.34
2018-09-18T15:12:01.225Z,80.16
2018-09-18T15:13:36.742Z,78.55
2018-09-18T15:15:12.243Z,80.39
2018-09-18T15:16:47.687Z,79.42
2018-09-18T15:18:23.867Z,83.28
2018-09-18T15:19:59.422Z,85.21
2018-09-18T15:21:34.993Z,82.18
2018-09-18T15:23:10.471Z,83.51
2018-09-18T15:24:46.035Z,84.35
2018-09-18T15:26:22.389Z,86.42
2018-09-18T15:27:58.000Z,82.26
2018-09-18T15:29:33.493Z,82.61
2018-09-18T15:31:08.957Z,83.91
2018-09-18T15:32:44.427Z,89.03
2018-09-18T15:34:20.070Z,91.33
2018-09-18T15:35:55.517Z,96.49
2018-09-18T15:37:31.080Z,97.72
2018-09-18T15:39:07.631Z,97.22
2018-09-18T15:40:43.175Z,94.58
2018-09-18T15:42:18.670Z,96.37
2018-09-18T15:43:54.202Z,100.00
2018-09-18T15:45:29.762Z,100.00
2018-09-18T15:47:05.509Z,99.24
2018-09-18T15:48:41.000Z,100.00
2018-09-18T15:50:16.567Z,100.00
2018-09-18T15:51:52.121Z,100.00
2018-09-18T15:53:27.542Z,100.00
2018-09-18T15:55:03.118Z,100.00
2018-09-18T15:56:38.587Z,98.65
2018-09-18T15:58:14.060Z,100.00
2018-09-18T15:59:49.645Z,100.00
2018-09-18T16:01:25.198Z,100.00
2018-09-18T16:03:00.932Z,100.00
2018-09-18T16:04:36.471Z,100.00
2018-09-18T16:06:12.039Z,100.00
2018-09-18T16:07:47.580Z,100.00
2018-09-18T16:09:23.035Z,100.00
2018-09-18T16:10:58.571Z,100.00
2018-09-18T16:12:34.109Z,100.00
2018-09-18T16:14:10.112Z,100.00
2018-09-18T16:15:45.634Z,100.00
2018-09-18T16:17:21.117Z,100.00
2018-09-18T16:18:56.619Z,100.00
2018-09-18T16:20:32.220Z,100.00
2018-09-18T16:22:07.734Z,100.00
2018-09-18T16:23:43.297Z,100.00
2018-09-18T16:25:18.778Z,100.00
2018-09-18T16:26:54.685Z,100.00
2018-09-18T16:28:30.500Z,100.00
2018-09-18T16:30:05.966Z,100.00
2018-09-18T16:31:41.477Z,100.00
2018-09-18T16:33:17.066Z,100.00
2018-09-18T16:34:52.592Z,100.00
2018-09-18T16:36:28.130Z,100.00
2018-09-18T16:38:03.669Z,100.00
2018-09-18T16:39:39.234Z,100.00
2018-09-18T16:41:14.729Z,100.00
2018-09-18T16:42:50.269Z,100.00
2018-09-18T16:44:25.804Z,100.00
2018-09-18T16:46:07.661Z,100.00
2018-09-18T16:47:43.688Z,100.00
2018-09-18T16:49:19.176Z,100.00
2018-09-18T16:50:54.641Z,100.00
2018-09-18T16:52:30.216Z,100.00
2018-09-18T16:54:10.782Z,100.00
2018-09-18T16:55:46.272Z,100.00
2018-09-18T16:57:21.823Z,100.00
2018-09-18T16:58:58.764Z,100.00
2018-09-18T17:00:34.307Z,100.00
2018-09-18T17:02:09.824Z,100.00
2018-09-18T17:03:47.874Z,100.00
2018-09-18T17:05:23.398Z,100.00
2018-09-18T17:06:58.920Z,100.00
2018-09-18T17:08:34.430Z,100.00
2018-09-18T17:10:10.004Z,100.00
2018-09-18T17:11:45.537Z,100.00
2018-09-18T17:13:21.040Z,100.00
2018-09-18T17:14:56.562Z,100.00
2018-09-18T17:16:32.127Z,100.00
2018-09-18T17:18:07.686Z,100.00
2018-09-18T17:19:44.174Z,100.00
2018-09-18T17:21:19.654Z,100.00
2018-09-18T17:22:56.238Z,100.00
2018-09-18T17:24:31.875Z,100.00
2018-09-18T17:26:07.317Z,100.00
2018-09-18T17:27:44.458Z,100.00
2018-09-18T17:29:20.558Z,100.00
2018-09-18T17:30:56.034Z,100.00
2018-09-18T17:32:33.525Z,100.00
2018-09-18T17:34:09.732Z,100.00
2018-09-18T17:35:45.149Z,100.00
2018-09-18T17:37:20.625Z,100.00
2018-09-18T17:38:56.148Z,100.00
2018-09-18T17:40:31.658Z,100.00
2018-09-18T17:42:07.193Z,100.00
2018-09-18T17:43:46.830Z,100.00
2018-09-18T17:45:23.235Z,100.00
2018-09-18T17:46:58.916Z,100.00
2018-09-18T17:48:34.464Z,100.00
2018-09-18T17:50:10.062Z,100.00
2018-09-18T17:51:46.179Z,100.00
2018-09-18T17:53:21.850Z,100.00
2018-09-18T17:54:57.570Z,100.00
2018-09-18T17:56:33.181Z,100.00
2018-09-18T17:58:08.787Z,100.00
2018-09-18T17:59:44.521Z,100.00
2018-09-18T18:01:20.141Z,100.00
2018-09-18T18:02:55.664Z,100.00
2018-09-18T18:04:31.236Z,100.00
2018-09-18T18:06:06.892Z,100.00
2018-09-18T18:07:42.590Z,100.00
2018-09-18T18:09:18.109Z,100.00
2018-09-18T18:10:55.019Z,100.00
2018-09-18T18:12:30.536Z,100.00
2018-09-18T18:14:06.274Z,100.00
2018-09-18T18:15:41.945Z,100.00
2018-09-18T18:17:17.642Z,100.00
2018-09-18T18:18:53.294Z,100.00
2018-09-18T18:20:28.907Z,100.00
2018-09-18T18:22:04.399Z,100.00
2018-09-18T18:23:40.134Z,100.00
2018-09-18T18:25:15.638Z,100.00
2018-09-18T18:26:51.222Z,100.00
2018-09-18T18:28:26.791Z,100.00
2018-09-18T18:30:02.360Z,100.00
2018-09-18T18:31:38.253Z,100.00
2018-09-18T18:33:13.744Z,100.00
2018-09-18T18:34:50.263Z,100.00
2018-09-18T18:36:25.777Z,100.00
2018-09-18T18:38:01.500Z,100.00
2018-09-18T18:39:37.035Z,100.00
2018-09-18T18:41:12.579Z,100.00
2018-09-18T18:42:48.476Z,100.00
2018-09-18T18:44:24.286Z,100.00
2018-09-18T18:46:00.554Z,100.00
2018-09-18T18:47:36.197Z,100.00
2018-09-18T18:49:13.011Z,100.00
2018-09-18T18:50:48.809Z,100.00
2018-09-18T18:52:24.356Z,100.00
2018-09-18T18:54:02.220Z,100.00
2018-09-18T18:55:37.792Z,100.00
2018-09-18T18:57:13.306Z,100.00
2018-09-18T18:58:48.848Z,100.00
2018-09-18T19:00:25.403Z,100.00
2018-09-18T19:02:01.262Z,100.00
2018-09-18T19:03:36.736Z,100.00
2018-09-18T19:05:12.294Z,100.00
2018-09-18T19:06:48.191Z,100.00
2018-09-18T19:08:23.717Z,100.00
2018-09-18T19:09:59.295Z,100.00
2018-09-18T19:11:34.885Z,100.00
2018-09-18T19:13:10.591Z,100.00
2018-09-18T19:14:46.152Z,100.00
2018-09-18T19:16:21.712Z,100.00
2018-09-18T19:19:31.497Z,100.00
2018-09-18T19:21:07.122Z,100.00
2018-09-18T19:22:42.705Z,100.00
2018-09-18T19:24:18.406Z,100.00
2018-09-18T19:25:54.059Z,100.00
2018-09-18T19:27:29.465Z,100.00
2018-09-18T19:29:06.048Z,100.00
2018-09-18T19:30:41.629Z,100.00
2018-09-18T19:32:17.512Z,100.00
2018-09-18T19:33:53.113Z,100.00
2018-09-18T19:35:28.735Z,100.00
2018-09-18T19:37:04.258Z,100.00
2018-09-18T19:38:39.796Z,100.00
2018-09-18T19:40:16.256Z,100.00
2018-09-18T19:41:51.943Z,100.00
2018-09-18T19:43:27.455Z,100.00
2018-09-18T19:45:03.266Z,100.00
2018-09-18T19:46:38.782Z,100.00
2018-09-18T19:48:14.430Z,100.00
2018-09-18T19:49:50.201Z,100.00
2018-09-18T19:51:27.288Z,100.00
2018-09-18T19:53:04.728Z,100.00
2018-09-18T19:54:41.680Z,100.00
2018-09-18T19:56:17.143Z,100.00
2018-09-18T19:57:52.782Z,100.00
2018-09-18T19:59:28.408Z,100.00
2018-09-18T20:01:03.944Z,100.00
2018-09-18T20:02:39.787Z,100.00
2018-09-18T20:04:15.445Z,100.00
2018-09-18T20:05:51.049Z,100.00
2018-09-18T20:07:26.597Z,100.00